Flora, North Dakota
Current Conditions -  °F | °C
As of 12:15 PM on Thursday 18 Dec 2014 (Local Time) from K5H4 Reporting Station
Overcast Overcast  
Wind Chill:   Ceiling: 600
Heat Index: 18°   Visibility: 9mi
Dew Point: 18°   Wind: 10mph
Humidity: 100%   Direction: 180°S
Pressure: 30.08"   Gusts: NA
Location:  47.9341°N, 99.5547°W
Report Text: K5H4 181815Z AUTO 18009KT 9SM OVC006 M08/M08 A3008 RMK AO2
Loading
Personal Weather Stations






























Interactive Weather Map New forecast layout! Learn more

10-Day Weather Forecast

Advertisements
Track Severe Weather on mobile